Time;durP1;ratioP1;P1;durP2;ratioP2;P2;SDS_P1;SDS_P2;PMS_P1;PMS_P2;Temp;Humidity;BMP_temperature;BMP_pressure;BME280_temperature;BME280_humidity;BME280_pressure;Samples;Min_cycle;Max_cycle;Signal;HPM_P1;HPM_P2
2020/12/21 00:00:43;;;;;;;15.43;3.73;;;8.50;85.40;;;;;;5017050;28;20038;-84
2020/12/21 00:03:09;;;;;;;8.80;2.30;;;8.50;85.50;;;;;;5017184;28;20026;-83
2020/12/21 00:05:34;;;;;;;11.70;2.70;;;8.50;85.50;;;;;;5017625;28;20026;-84
2020/12/21 00:08:02;;;;;;;12.50;2.50;;;8.60;85.30;;;;;;5029292;28;20026;-82
2020/12/21 00:10:30;;;;;;;11.47;2.67;;;8.50;85.30;;;;;;5029791;28;20086;-83
2020/12/21 00:12:57;;;;;;;12.47;3.17;;;8.50;85.10;;;;;;5023153;28;20128;-83
2020/12/21 00:15:22;;;;;;;8.93;2.53;;;8.50;85.30;;;;;;5014396;28;20033;-83
2020/12/21 00:17:48;;;;;;;12.53;2.50;;;8.50;85.10;;;;;;5052813;23;20041;-85
2020/12/21 00:20:13;;;;;;;17.67;3.10;;;8.50;85.10;;;;;;5035092;28;20022;-86
2020/12/21 00:25:28;;;;;;;10.27;2.83;;;8.50;84.80;;;;;;5027179;28;20053;-85
2020/12/21 00:27:54;;;;;;;11.83;2.90;;;8.50;85.10;;;;;;5021418;28;20021;-87
2020/12/21 00:30:19;;;;;;;13.80;3.03;;;8.40;85.10;;;;;;5019943;28;20033;-86
2020/12/21 00:32:45;;;;;;;7.77;2.63;;;8.40;85.40;;;;;;5016262;28;20397;-86
2020/12/21 00:35:10;;;;;;;14.30;3.13;;;8.40;85.10;;;;;;5016861;28;20029;-87
2020/12/21 00:37:36;;;;;;;11.33;3.00;;;8.40;85.10;;;;;;5018394;28;20051;-86
2020/12/21 00:40:03;;;;;;;13.40;3.40;;;8.40;85.00;;;;;;5025070;28;20055;-87
2020/12/21 00:42:29;;;;;;;11.97;3.33;;;8.40;85.00;;;;;;5021014;28;20112;-86
2020/12/21 00:44:54;;;;;;;15.60;3.30;;;8.40;85.20;;;;;;5014699;28;20188;-87
2020/12/21 00:47:20;;;;;;;13.83;2.50;;;8.40;85.30;;;;;;5014345;28;20041;-87
2020/12/21 00:49:45;;;;;;;13.37;2.97;;;8.30;85.20;;;;;;5031535;28;20037;-87
2020/12/21 00:52:11;;;;;;;9.57;2.57;;;8.30;85.00;;;;;;5014608;28;20501;-86
2020/12/21 00:54:37;;;;;;;13.07;2.70;;;8.30;85.30;;;;;;5032250;28;20505;-87
2020/12/21 00:57:02;;;;;;;12.73;2.60;;;8.30;85.90;;;;;;5031935;28;20061;-85
2020/12/21 00:59:28;;;;;;;11.80;2.33;;;8.30;85.10;;;;;;5031642;28;20025;-86
2020/12/21 01:01:54;;;;;;;13.40;3.27;;;8.30;85.10;;;;;;5032272;28;20025;-86
2020/12/21 01:04:22;;;;;;;14.17;3.07;;;8.30;85.00;;;;;;5016145;28;20021;-87
2020/12/21 01:06:54;;;;;;;10.70;2.75;;;8.30;85.20;;;;;;5035831;28;20421;-87
2020/12/21 01:09:20;;;;;;;10.47;2.40;;;8.30;85.20;;;;;;5035795;28;20029;-86
2020/12/21 01:11:45;;;;;;;12.40;2.30;;;8.30;85.00;;;;;;5018082;28;20029;-86
2020/12/21 01:14:11;;;;;;;10.60;2.50;;;8.30;85.00;;;;;;5036478;28;20025;-87
2020/12/21 01:16:37;;;;;;;11.87;2.40;;;8.40;85.10;;;;;;5036011;28;20552;-86
2020/12/21 01:19:02;;;;;;;12.53;2.43;;;8.30;85.20;;;;;;5024892;28;20049;-87
2020/12/21 01:21:29;;;;;;;7.57;2.80;;;8.30;85.00;;;;;;5041763;28;20038;-85
2020/12/21 01:23:59;;;;;;;10.03;2.10;;;8.30;84.90;;;;;;5042811;28;20040;-84
2020/12/21 01:26:25;;;;;;;9.80;2.13;;;8.30;85.00;;;;;;5041654;28;20211;-85
2020/12/21 01:28:51;;;;;;;13.43;2.40;;;8.20;84.90;;;;;;5040774;28;20097;-86
2020/12/21 01:31:19;;;;;;;12.40;2.20;;;8.30;85.10;;;;;;5043976;28;20029;-85
2020/12/21 01:33:45;;;;;;;13.10;2.87;;;8.20;85.20;;;;;;5035666;28;20132;-87
2020/12/21 01:36:12;;;;;;;12.53;2.93;;;8.20;85.20;;;;;;5018088;28;20033;-86
2020/12/21 01:38:38;;;;;;;11.67;2.83;;;8.30;85.00;;;;;;5018265;28;20501;-86
2020/12/21 01:41:03;;;;;;;10.10;2.40;;;8.30;84.80;;;;;;5017645;28;20030;-86
2020/12/21 01:43:29;;;;;;;10.23;2.97;;;8.20;85.10;;;;;;5018070;28;20025;-87
2020/12/21 01:46:18;;;;;;;9.87;2.27;;;8.30;85.20;;;;;;5018727;28;20437;-87
2020/12/21 01:48:44;;;;;;;12.50;2.72;;;8.20;85.20;;;;;;5018866;28;20021;-86
2020/12/21 01:51:24;;;;;;;9.77;2.27;;;8.20;85.40;;;;;;5029523;28;20030;-86
2020/12/21 01:53:51;;;;;;;12.03;2.50;;;8.10;85.20;;;;;;5041270;28;20034;-85
2020/12/21 01:56:17;;;;;;;11.47;2.40;;;8.10;85.30;;;;;;5059251;28;20024;-85
2020/12/21 01:58:43;;;;;;;7.90;1.97;;;8.10;85.40;;;;;;5042129;28;20041;-85
2020/12/21 02:01:11;;;;;;;12.53;2.73;;;7.90;85.30;;;;;;5041369;28;20017;-85
2020/12/21 02:03:37;;;;;;;11.20;2.37;;;7.90;85.70;;;;;;5041830;28;20016;-86
2020/12/21 02:06:03;;;;;;;11.20;3.33;;;7.90;85.80;;;;;;5054436;28;20036;-87
2020/12/21 02:08:29;;;;;;;10.53;2.20;;;7.90;85.50;;;;;;5020539;28;20116;-86
2020/12/21 02:10:54;;;;;;;10.63;2.27;;;7.90;85.30;;;;;;5017603;28;20124;-87
2020/12/21 02:13:20;;;;;;;12.13;2.47;;;7.80;85.60;;;;;;5016856;28;20037;-85
2020/12/21 02:15:46;;;;;;;11.17;2.47;;;7.80;85.50;;;;;;5033366;28;20068;-86
2020/12/21 02:18:12;;;;;;;12.50;2.43;;;7.80;85.70;;;;;;5016483;28;20493;-87
2020/12/21 02:20:37;;;;;;;11.10;2.97;;;7.70;85.90;;;;;;5033670;28;20040;-87
2020/12/21 02:23:03;;;;;;;14.20;2.70;;;7.70;85.90;;;;;;5034156;28;20481;-87
2020/12/21 02:25:28;;;;;;;10.80;2.33;;;7.70;86.00;;;;;;5034030;28;20025;-86
2020/12/21 02:27:54;;;;;;;16.10;3.20;;;7.70;86.00;;;;;;5033884;28;20026;-87
2020/12/21 02:30:20;;;;;;;14.10;2.80;;;7.70;86.10;;;;;;5015615;28;20115;-87
2020/12/21 02:32:45;;;;;;;7.53;2.07;;;7.60;85.80;;;;;;5016107;28;20029;-86
2020/12/21 02:35:11;;;;;;;8.80;2.30;;;7.50;85.90;;;;;;5016036;28;20026;-88
2020/12/21 02:37:37;;;;;;;10.27;2.27;;;7.50;85.80;;;;;;5015945;28;20025;-86
2020/12/21 02:40:04;;;;;;;9.73;2.90;;;7.50;85.70;;;;;;5015421;28;20062;-87
2020/12/21 02:42:30;;;;;;;13.27;2.30;;;7.50;86.00;;;;;;5015913;28;20026;-87
2020/12/21 02:44:56;;;;;;;7.97;2.30;;;7.60;86.00;;;;;;5015977;28;20029;-87
2020/12/21 02:47:21;;;;;;;9.67;2.40;;;7.60;85.60;;;;;;5015777;28;20025;-86
2020/12/21 02:49:47;;;;;;;9.40;2.40;;;7.60;85.70;;;;;;5015337;28;20502;-86
2020/12/21 02:52:14;;;;;;;12.80;2.50;;;7.60;85.30;;;;;;5015723;28;20086;-87
2020/12/21 02:54:40;;;;;;;8.93;2.10;;;7.60;85.50;;;;;;5033347;28;20095;-87
2020/12/21 02:57:06;;;;;;;9.93;2.60;;;7.60;85.50;;;;;;5033294;28;20425;-86
2020/12/21 02:59:32;;;;;;;13.47;2.60;;;7.60;85.20;;;;;;5015038;28;20033;-86
2020/12/21 03:01:57;;;;;;;14.20;2.57;;;7.60;85.10;;;;;;5033241;28;20064;-87
2020/12/21 03:04:23;;;;;;;9.47;2.67;;;7.60;85.00;;;;;;5033171;28;20057;-85
2020/12/21 03:06:49;;;;;;;10.37;2.50;;;7.60;85.20;;;;;;5033291;28;20049;-86
2020/12/21 03:09:14;;;;;;;9.27;2.20;;;7.60;85.30;;;;;;5032514;28;20071;-87
2020/12/21 03:11:44;;;;;;;11.83;3.50;;;7.50;85.20;;;;;;5032950;28;20030;-86
2020/12/21 03:14:10;;;;;;;7.80;2.13;;;7.50;85.50;;;;;;5015433;28;20032;-86
2020/12/21 03:16:35;;;;;;;11.13;2.13;;;7.50;86.30;;;;;;5015209;28;20037;-86
2020/12/21 03:19:01;;;;;;;12.37;2.47;;;7.50;85.10;;;;;;5032496;28;20033;-86
2020/12/21 03:21:26;;;;;;;9.93;2.13;;;7.50;85.10;;;;;;5032900;28;20446;-86
2020/12/21 03:23:52;;;;;;;11.80;2.73;;;7.50;85.10;;;;;;5032870;28;20022;-86
2020/12/21 03:26:18;;;;;;;10.97;2.77;;;7.50;85.50;;;;;;5014811;28;20033;-87
2020/12/21 03:28:43;;;;;;;12.10;2.43;;;7.50;85.10;;;;;;5015179;28;20030;-87
2020/12/21 03:31:09;;;;;;;7.97;2.03;;;7.40;85.20;;;;;;5032180;28;20048;-86
2020/12/21 03:33:34;;;;;;;10.37;2.60;;;7.40;85.10;;;;;;5015022;28;20478;-86
2020/12/21 03:36:00;;;;;;;15.10;2.80;;;7.40;85.00;;;;;;5015157;28;20079;-86
2020/12/21 03:38:26;;;;;;;14.70;2.93;;;7.40;85.10;;;;;;5015003;28;20096;-87
2020/12/21 03:40:51;;;;;;;12.57;2.70;;;7.50;85.50;;;;;;5014320;28;20466;-87
2020/12/21 03:43:19;;;;;;;9.53;2.30;;;7.50;85.00;;;;;;5032491;28;20059;-87
2020/12/21 03:45:46;;;;;;;12.00;2.90;;;7.40;85.20;;;;;;5014960;28;20030;-86
2020/12/21 03:48:13;;;;;;;9.43;2.33;;;7.50;84.90;;;;;;5032523;28;20022;-86
2020/12/21 03:50:39;;;;;;;11.00;2.47;;;7.50;84.60;;;;;;5014471;28;20061;-86
2020/12/21 03:53:05;;;;;;;10.93;2.67;;;7.50;84.40;;;;;;5014699;28;20060;-86
2020/12/21 03:55:30;;;;;;;9.97;2.30;;;7.50;85.00;;;;;;5032452;28;20056;-85
2020/12/21 03:57:56;;;;;;;9.47;2.17;;;7.50;84.40;;;;;;5014593;28;20502;-87
2020/12/21 04:00:21;;;;;;;8.33;2.10;;;7.50;84.50;;;;;;5031816;28;20040;-86
2020/12/21 04:02:47;;;;;;;11.80;2.70;;;7.60;84.30;;;;;;5019649;28;20009;-84
2020/12/21 04:05:12;;;;;;;7.47;2.50;;;7.50;84.20;;;;;;5037622;28;20035;-86
2020/12/21 04:07:38;;;;;;;9.93;2.53;;;7.60;84.40;;;;;;5037456;28;20025;-85
2020/12/21 04:10:05;;;;;;;6.73;2.30;;;7.50;84.40;;;;;;5032404;28;20022;-87
2020/12/21 04:12:31;;;;;;;12.30;3.33;;;7.50;84.40;;;;;;5014478;28;20022;-86
2020/12/21 04:14:57;;;;;;;8.83;2.17;;;7.50;84.20;;;;;;5014527;28;20116;-86
2020/12/21 04:17:22;;;;;;;13.73;2.70;;;7.50;84.40;;;;;;5014299;28;20033;-87
2020/12/21 04:19:48;;;;;;;10.53;2.43;;;7.60;84.30;;;;;;5013977;28;20543;-86
2020/12/21 04:22:13;;;;;;;11.67;2.30;;;7.60;84.40;;;;;;5014273;28;20028;-86
2020/12/21 04:24:39;;;;;;;12.03;2.53;;;7.50;84.70;;;;;;5014314;28;20022;-86
2020/12/21 04:27:04;;;;;;;8.77;2.30;;;7.50;84.30;;;;;;5014497;28;20029;-87
2020/12/21 04:29:30;;;;;;;9.37;2.57;;;7.50;84.60;;;;;;5013877;28;20026;-86
2020/12/21 04:31:56;;;;;;;6.30;2.10;;;7.60;84.30;;;;;;5032075;28;20068;-87
2020/12/21 04:34:25;;;;;;;7.17;2.20;;;7.50;84.20;;;;;;5014148;28;20112;-86
2020/12/21 04:36:52;;;;;;;11.60;2.78;;;7.60;84.30;;;;;;5014336;28;20030;-87
2020/12/21 04:39:18;;;;;;;10.93;2.20;;;7.50;84.60;;;;;;5015531;28;20030;-87
2020/12/21 04:41:54;;;;;;;7.57;1.90;;;7.60;84.10;;;;;;5018451;28;20124;-87
2020/12/21 04:44:21;;;;;;;10.73;2.27;;;7.50;84.20;;;;;;5035913;28;20470;-86
2020/12/21 04:46:48;;;;;;;12.07;2.43;;;7.60;83.90;;;;;;5018120;28;20021;-87
2020/12/21 04:49:17;;;;;;;10.20;2.30;;;7.60;83.90;;;;;;5017608;28;20071;-86
2020/12/21 04:51:45;;;;;;;12.73;2.42;;;7.50;83.90;;;;;;5017979;28;20087;-86
2020/12/21 04:54:11;;;;;;;11.32;2.28;;;7.50;84.00;;;;;;5018215;28;20025;-86
2020/12/21 04:56:37;;;;;;;7.30;2.10;;;7.50;83.80;;;;;;5018171;28;20552;-87
2020/12/21 04:59:03;;;;;;;9.03;2.40;;;7.50;84.10;;;;;;5035057;28;20036;-87
2020/12/21 05:01:28;;;;;;;7.93;2.10;;;7.50;84.00;;;;;;5017940;28;20029;-86
2020/12/21 05:03:54;;;;;;;10.07;2.53;;;7.50;84.10;;;;;;5017715;28;20533;-86
2020/12/21 05:06:20;;;;;;;8.90;2.03;;;7.40;84.20;;;;;;5017665;28;20030;-87
2020/12/21 05:08:46;;;;;;;11.83;2.27;;;7.50;84.20;;;;;;5017674;28;20385;-85
2020/12/21 05:11:11;;;;;;;10.57;2.33;;;7.50;83.90;;;;;;5034996;28;20033;-86
2020/12/21 05:13:37;;;;;;;11.00;2.30;;;7.50;84.30;;;;;;5017618;28;20025;-87
2020/12/21 05:16:03;;;;;;;12.83;2.77;;;7.50;84.00;;;;;;5018149;28;20025;-87
2020/12/21 05:18:30;;;;;;;12.53;3.17;;;7.50;83.90;;;;;;5035117;28;20030;-87
2020/12/21 05:20:58;;;;;;;10.73;2.60;;;7.50;84.00;;;;;;5034565;28;20486;-86
2020/12/21 05:23:24;;;;;;;12.53;2.60;;;7.50;84.20;;;;;;5035247;28;20028;-86
2020/12/21 05:26:08;;;;;;;10.33;2.63;;;7.50;84.20;;;;;;5017710;28;20047;-87
2020/12/21 05:28:35;;;;;;;11.33;2.33;;;7.50;84.10;;;;;;5035237;28;20155;-86
2020/12/21 05:31:06;;;;;;;10.07;2.50;;;7.50;84.20;;;;;;5016484;28;20033;-87
2020/12/21 05:33:33;;;;;;;10.40;2.17;;;7.40;84.30;;;;;;5017538;28;20029;-87
2020/12/21 05:36:10;;;;;;;12.37;2.37;;;7.40;84.80;;;;;;5035230;28;20115;-85
2020/12/21 05:38:37;;;;;;;9.67;2.23;;;7.40;84.80;;;;;;5035120;28;20391;-86
2020/12/21 05:41:16;;;;;;;9.60;2.30;;;7.40;84.70;;;;;;5016805;28;20044;-86
2020/12/21 05:43:43;;;;;;;13.10;2.78;;;7.40;84.40;;;;;;5017328;28;20072;-88
2020/12/21 05:46:15;;;;;;;14.00;3.17;;;7.50;84.40;;;;;;5017577;28;20053;-86
2020/12/21 05:48:42;;;;;;;7.30;2.47;;;7.50;84.00;;;;;;5017386;28;20017;-87
2020/12/21 05:51:10;;;;;;;9.70;2.10;;;7.60;84.20;;;;;;5034154;28;20104;-86
2020/12/21 05:53:43;;;;;;;7.17;2.30;;;7.60;84.10;;;;;;5017392;28;20026;-86
2020/12/21 05:56:10;;;;;;;11.67;2.40;;;7.60;84.40;;;;;;5034996;28;20026;-86
2020/12/21 05:58:37;;;;;;;9.30;2.40;;;7.50;84.30;;;;;;5016879;28;20029;-87
2020/12/21 06:01:05;;;;;;;10.53;3.07;;;7.50;84.60;;;;;;5016297;28;20037;-87
2020/12/21 06:03:51;;;;;;;14.80;3.33;;;7.50;84.40;;;;;;5017172;28;20048;-87
2020/12/21 06:06:20;;;;;;;14.07;2.60;;;7.50;84.70;;;;;;5016893;28;20068;-87
2020/12/21 06:08:48;;;;;;;7.80;2.40;;;7.60;84.50;;;;;;5034907;28;20026;-86
2020/12/21 06:11:25;;;;;;;8.03;2.30;;;7.60;84.40;;;;;;5034376;28;20028;-86
2020/12/21 06:14:14;;;;;;;10.17;2.20;;;7.70;84.20;;;;;;5017038;28;20075;-86
2020/12/21 06:16:40;;;;;;;15.77;2.40;;;7.60;84.40;;;;;;5039746;23;20033;-82
2020/12/21 06:19:11;;;;;;;9.57;2.37;;;7.60;84.00;;;;;;5033887;28;20061;-82
2020/12/21 06:21:40;;;;;;;12.77;2.30;;;7.60;84.00;;;;;;5035379;28;20466;-82
2020/12/21 06:24:19;;;;;;;9.43;2.40;;;7.60;84.20;;;;;;5035909;28;20029;-82
2020/12/21 06:26:45;;;;;;;10.80;2.17;;;7.70;83.90;;;;;;5035460;28;20033;-82
2020/12/21 06:29:15;;;;;;;10.13;2.27;;;7.60;84.20;;;;;;5034706;28;20744;-83
2020/12/21 06:31:52;;;;;;;9.03;2.10;;;7.60;84.10;;;;;;5017526;28;20040;-82
2020/12/21 06:34:30;;;;;;;10.00;2.60;;;7.70;83.70;;;;;;5036036;28;20486;-83
2020/12/21 06:37:06;;;;;;;9.10;2.60;;;7.70;83.60;;;;;;5017759;28;20029;-82
2020/12/21 06:39:33;;;;;;;7.67;2.27;;;7.70;83.60;;;;;;5017623;28;20065;-81
2020/12/21 06:42:05;;;;;;;20.13;6.43;;;7.70;83.70;;;;;;5035897;28;20026;-82
2020/12/21 06:44:32;;;;;;;11.37;2.70;;;7.70;83.80;;;;;;5018015;28;20053;-82
2020/12/21 06:46:59;;;;;;;18.77;3.17;;;7.70;83.70;;;;;;5036238;28;20025;-83
2020/12/21 06:49:25;;;;;;;11.63;3.53;;;7.70;83.70;;;;;;5017870;28;20041;-82
2020/12/21 06:51:51;;;;;;;9.27;2.73;;;7.70;83.70;;;;;;5035817;28;20032;-82
2020/12/21 06:54:18;;;;;;;10.47;2.53;;;7.70;83.80;;;;;;5018208;28;20021;-83
2020/12/21 06:56:48;;;;;;;15.43;3.47;;;7.70;84.00;;;;;;5017771;28;20025;-82
2020/12/21 06:59:16;;;;;;;18.97;4.37;;;7.70;84.60;;;;;;5034809;28;20555;-82
2020/12/21 07:01:44;;;;;;;11.20;2.90;;;7.70;83.90;;;;;;5034538;28;20026;-82
2020/12/21 07:04:12;;;;;;;11.67;2.60;;;7.70;84.00;;;;;;5017983;28;20021;-82
2020/12/21 07:06:38;;;;;;;11.53;2.60;;;7.70;83.90;;;;;;5036062;28;20021;-83
2020/12/21 07:09:04;;;;;;;8.27;2.40;;;7.60;83.90;;;;;;5017408;28;20098;-83
2020/12/21 07:11:30;;;;;;;7.73;2.10;;;7.70;84.20;;;;;;5035680;28;20071;-83
2020/12/21 07:13:57;;;;;;;8.57;2.30;;;7.70;84.00;;;;;;5036218;28;20025;-83
2020/12/21 07:16:23;;;;;;;13.37;2.57;;;7.70;84.00;;;;;;5018124;28;20104;-82
2020/12/21 07:18:49;;;;;;;10.87;2.07;;;7.70;84.00;;;;;;5035633;28;20450;-82
2020/12/21 07:21:16;;;;;;;10.63;2.80;;;7.70;84.00;;;;;;5035347;28;20064;-82
2020/12/21 07:23:42;;;;;;;11.77;2.57;;;7.70;83.80;;;;;;5035251;28;20049;-82
2020/12/21 07:26:09;;;;;;;9.87;2.70;;;7.60;84.10;;;;;;5035482;28;20032;-82
2020/12/21 07:28:35;;;;;;;11.00;2.80;;;7.70;84.10;;;;;;5017475;28;20021;-82
2020/12/21 07:31:17;;;;;;;14.00;2.57;;;7.70;83.80;;;;;;5034747;28;20538;-82
2020/12/21 07:33:54;;;;;;;13.13;2.70;;;7.80;84.30;;;;;;5035154;28;20139;-83
2020/12/21 07:36:28;;;;;;;8.70;2.30;;;7.70;84.10;;;;;;5035969;28;20444;-82
2020/12/21 07:39:11;;;;;;;9.10;2.27;;;7.70;84.00;;;;;;5034943;28;20055;-83
2020/12/21 07:41:47;;;;;;;9.17;2.33;;;7.70;84.20;;;;;;5018154;28;20032;-83
2020/12/21 07:44:29;;;;;;;9.60;2.33;;;7.70;84.10;;;;;;5018434;28;20485;-83
2020/12/21 07:47:07;;;;;;;12.90;2.63;;;7.70;84.70;;;;;;5036157;28;20026;-83
2020/12/21 07:49:34;;;;;;;9.80;2.10;;;7.60;84.60;;;;;;5017549;28;20033;-83
2020/12/21 07:52:04;;;;;;;11.93;2.23;;;7.60;84.80;;;;;;5018591;28;20401;-83
2020/12/21 07:54:48;;;;;;;9.10;2.30;;;7.70;84.80;;;;;;5018089;28;20113;-82
2020/12/21 07:57:17;;;;;;;11.00;2.80;;;7.70;84.70;;;;;;5036338;28;20043;-83
2020/12/21 07:59:43;;;;;;;11.30;2.08;;;7.70;84.80;;;;;;5017633;28;20140;-83
2020/12/21 08:02:09;;;;;;;13.40;2.73;;;7.70;84.60;;;;;;5018173;28;20053;-83
2020/12/21 08:04:35;;;;;;;9.50;2.27;;;7.70;84.80;;;;;;5036063;28;20017;-82
2020/12/21 08:07:08;;;;;;;10.37;2.40;;;7.70;84.90;;;;;;5018087;28;20032;-82
2020/12/21 08:09:40;;;;;;;8.97;2.20;;;7.70;84.90;;;;;;5035862;28;20030;-82
2020/12/21 08:12:13;;;;;;;9.53;2.27;;;7.70;84.70;;;;;;5017582;28;20029;-82
2020/12/21 08:14:39;;;;;;;13.70;2.57;;;7.70;84.90;;;;;;5034939;28;20022;-82
2020/12/21 08:17:15;;;;;;;10.50;2.63;;;7.70;84.80;;;;;;5034861;28;20091;-81
2020/12/21 08:19:51;;;;;;;9.47;2.40;;;7.70;84.70;;;;;;5034489;28;20104;-82
2020/12/21 08:22:28;;;;;;;9.27;2.50;;;7.80;84.90;;;;;;5035687;28;20025;-82
2020/12/21 08:25:09;;;;;;;10.73;2.60;;;7.80;84.80;;;;;;5035458;28;20021;-82
2020/12/21 08:27:34;;;;;;;8.40;2.10;;;7.80;84.60;;;;;;5035453;28;20437;-82
2020/12/21 08:30:11;;;;;;;18.60;3.37;;;7.90;84.50;;;;;;5017154;28;20036;-82
2020/12/21 08:32:37;;;;;;;8.87;2.27;;;7.90;84.90;;;;;;5017726;28;20326;-81
2020/12/21 08:35:04;;;;;;;11.63;2.40;;;7.90;84.70;;;;;;5036172;28;20032;-82
2020/12/21 08:37:30;;;;;;;8.30;2.07;;;7.90;84.80;;;;;;5017941;28;20036;-82
2020/12/21 08:39:55;;;;;;;8.23;1.83;;;7.80;84.80;;;;;;5017551;28;20033;-82
2020/12/21 08:42:21;;;;;;;7.20;1.87;;;7.90;84.80;;;;;;5035915;28;20053;-82
2020/12/21 08:44:50;;;;;;;9.60;1.80;;;7.90;84.70;;;;;;5035718;28;20386;-82
2020/12/21 08:47:15;;;;;;;7.38;1.95;;;7.90;84.60;;;;;;5035792;28;20432;-82
2020/12/21 08:49:41;;;;;;;7.63;2.10;;;7.90;84.80;;;;;;5035489;28;20037;-82
2020/12/21 08:52:06;;;;;;;10.33;2.10;;;8.00;84.70;;;;;;5018411;28;20029;-82
2020/12/21 08:54:32;;;;;;;9.93;2.93;;;8.00;84.40;;;;;;5035238;28;20505;-83
2020/12/21 08:56:58;;;;;;;8.50;2.00;;;8.00;84.60;;;;;;5035738;28;20098;-82
2020/12/21 08:59:24;;;;;;;7.67;2.47;;;8.00;84.60;;;;;;5036510;28;20028;-82
2020/12/21 09:01:50;;;;;;;8.00;2.37;;;8.10;84.60;;;;;;5025152;28;20032;-82
2020/12/21 09:04:16;;;;;;;9.77;1.90;;;8.10;84.50;;;;;;5042342;28;20053;-82
2020/12/21 09:06:42;;;;;;;6.60;1.93;;;8.10;84.40;;;;;;5041221;28;20028;-82
2020/12/21 09:09:09;;;;;;;11.40;2.43;;;8.10;84.40;;;;;;5037456;28;20032;-82
2020/12/21 09:11:35;;;;;;;6.57;2.00;;;8.10;84.30;;;;;;5034865;28;20051;-82
2020/12/21 09:14:00;;;;;;;7.63;2.47;;;8.10;84.20;;;;;;5034252;28;20104;-82
2020/12/21 09:16:28;;;;;;;7.60;1.97;;;8.20;84.50;;;;;;5016564;28;20026;-81
2020/12/21 09:18:58;;;;;;;13.50;2.70;;;8.20;84.10;;;;;;5016727;28;20033;-82
2020/12/21 09:21:29;;;;;;;10.47;2.50;;;8.20;83.90;;;;;;5034069;28;20478;-82
2020/12/21 09:23:59;;;;;;;9.67;2.40;;;8.20;84.20;;;;;;5034751;28;20017;-81
2020/12/21 09:26:26;;;;;;;8.43;1.80;;;8.20;84.40;;;;;;5018708;28;20032;-82
2020/12/21 09:28:53;;;;;;;13.43;2.27;;;8.30;84.50;;;;;;5040836;28;20025;-82
2020/12/21 09:31:21;;;;;;;13.10;2.90;;;8.30;84.40;;;;;;5041911;28;20029;-82
2020/12/21 09:33:50;;;;;;;13.20;2.03;;;8.20;84.40;;;;;;5041087;28;20041;-82
2020/12/21 09:36:16;;;;;;;;;;;8.30;84.40;;;;;;5023222;28;20486;-82
2020/12/21 09:38:43;;;;;;;7.13;1.50;;;8.30;84.20;;;;;;5037901;28;20331;-82
2020/12/21 09:41:09;;;;;;;7.70;1.97;;;8.30;84.10;;;;;;5018990;28;20025;-82
2020/12/21 09:43:35;;;;;;;7.63;2.00;;;8.30;84.30;;;;;;5037212;28;20090;-82
2020/12/21 09:46:01;;;;;;;5.20;1.60;;;8.30;84.80;;;;;;5037116;28;20029;-82
2020/12/21 09:48:27;;;;;;;7.47;2.40;;;8.40;84.30;;;;;;5037152;28;20144;-82
2020/12/21 09:50:53;;;;;;;9.93;2.10;;;8.40;84.60;;;;;;5036373;28;20057;-82
2020/12/21 09:53:19;;;;;;;5.00;1.80;;;8.40;84.30;;;;;;5019472;28;20026;-82
2020/12/21 09:55:44;;;;;;;12.43;1.97;;;8.40;84.50;;;;;;5037003;28;20022;-82
2020/12/21 09:58:10;;;;;;;9.00;2.20;;;8.40;84.60;;;;;;5037250;28;20025;-82
2020/12/21 10:00:35;;;;;;;11.23;1.97;;;8.40;84.80;;;;;;5018031;28;20489;-82
2020/12/21 10:03:01;;;;;;;8.70;2.20;;;8.40;85.10;;;;;;5036570;28;20021;-82
2020/12/21 10:05:27;;;;;;;14.80;2.63;;;8.40;85.50;;;;;;5018407;28;20021;-82
2020/12/21 10:07:52;;;;;;;11.03;2.20;;;8.30;85.50;;;;;;5018036;28;20056;-82
2020/12/21 10:10:18;;;;;;;12.40;2.27;;;8.40;85.90;;;;;;5035310;28;20029;-82
2020/12/21 10:12:43;;;;;;;7.43;2.07;;;8.40;85.90;;;;;;5018151;28;20036;-82
2020/12/21 10:15:10;;;;;;;10.77;2.50;;;8.40;86.20;;;;;;5036289;28;20030;-81
2020/12/21 10:17:35;;;;;;;13.07;2.57;;;8.40;86.00;;;;;;5036232;28;20037;-82
2020/12/21 10:20:01;;;;;;;8.33;2.10;;;8.40;86.20;;;;;;5035457;28;20497;-82
2020/12/21 10:22:26;;;;;;;11.87;2.90;;;8.40;85.70;;;;;;5017870;28;20064;-81
2020/12/21 10:24:52;;;;;;;11.17;2.17;;;8.40;86.20;;;;;;5036130;28;20037;-82
2020/12/21 10:27:17;;;;;;;6.40;1.77;;;8.40;86.10;;;;;;5036375;28;20025;-82
2020/12/21 10:29:43;;;;;;;7.57;2.27;;;8.40;86.20;;;;;;5035321;28;20028;-82
2020/12/21 10:32:09;;;;;;;7.70;1.77;;;8.40;86.00;;;;;;5035719;28;20029;-86
2020/12/21 10:34:35;;;;;;;8.70;2.40;;;8.50;86.30;;;;;;5018703;28;20028;-82
2020/12/21 10:37:00;;;;;;;7.33;1.90;;;8.50;86.30;;;;;;5018318;28;20048;-84
2020/12/21 10:39:26;;;;;;;8.03;1.70;;;8.50;86.30;;;;;;5033891;28;20030;-83
2020/12/21 10:41:52;;;;;;;9.00;2.10;;;8.50;86.10;;;;;;5033325;28;20013;-83
2020/12/21 10:44:18;;;;;;;6.13;1.93;;;8.60;86.20;;;;;;5015613;28;20492;-83
2020/12/21 10:46:44;;;;;;;9.33;1.90;;;8.60;85.70;;;;;;5034968;28;20021;-83
2020/12/21 10:49:10;;;;;;;6.80;2.10;;;8.60;85.90;;;;;;5034621;28;20363;-83
2020/12/21 10:51:35;;;;;;;8.73;2.67;;;8.60;85.80;;;;;;5017329;28;20029;-83
2020/12/21 10:54:02;;;;;;;10.43;2.00;;;8.60;85.80;;;;;;5017528;28;20026;-88
2020/12/21 10:56:28;;;;;;;9.57;1.73;;;8.60;85.70;;;;;;5035377;28;20025;-84
2020/12/21 10:58:57;;;;;;;10.73;2.30;;;8.60;85.60;;;;;;5016856;28;20498;-83
2020/12/21 11:01:23;;;;;;;7.35;2.00;;;8.60;85.80;;;;;;5035336;28;20498;-80
2020/12/21 11:03:49;;;;;;;7.90;2.07;;;8.70;86.30;;;;;;5034702;28;20027;-81
2020/12/21 11:06:22;;;;;;;11.00;2.33;;;8.70;86.20;;;;;;5038444;28;20025;-80
2020/12/21 11:08:48;;;;;;;8.93;2.10;;;8.70;85.60;;;;;;5036945;28;20052;-83
2020/12/21 11:11:14;;;;;;;5.83;1.90;;;8.80;86.30;;;;;;5036487;28;20026;-82
2020/12/21 11:13:41;;;;;;;5.97;1.67;;;8.80;85.70;;;;;;5035581;28;20052;-80
2020/12/21 11:16:10;;;;;;;7.00;1.87;;;8.80;85.40;;;;;;5034637;28;20049;-80
2020/12/21 11:18:36;;;;;;;7.63;1.70;;;8.80;85.40;;;;;;5032421;28;20041;-80
2020/12/21 11:21:02;;;;;;;13.40;2.37;;;8.90;85.40;;;;;;5014284;28;20128;-80
2020/12/21 11:23:27;;;;;;;9.00;2.33;;;8.90;85.70;;;;;;5032465;28;20486;-81
2020/12/21 11:25:53;;;;;;;9.07;2.43;;;8.90;86.20;;;;;;5014681;28;20029;-81
2020/12/21 11:28:19;;;;;;;8.70;1.93;;;8.80;85.70;;;;;;5038335;28;20076;-80
2020/12/21 11:30:44;;;;;;;6.77;1.83;;;8.90;86.30;;;;;;5017721;28;20033;-80
2020/12/21 11:33:10;;;;;;;6.87;1.80;;;9.00;86.20;;;;;;5019093;28;20025;-81
2020/12/21 11:35:35;;;;;;;8.87;2.37;;;8.90;86.40;;;;;;5019898;28;20457;-81
2020/12/21 11:38:01;;;;;;;7.63;2.40;;;8.90;86.60;;;;;;5018234;28;20064;-81
2020/12/21 11:40:27;;;;;;;5.33;1.70;;;8.90;86.60;;;;;;5036845;28;20033;-80
2020/12/21 11:42:52;;;;;;;10.47;2.30;;;8.90;86.80;;;;;;5036875;28;20029;-80
2020/12/21 11:45:18;;;;;;;9.93;2.10;;;8.90;87.50;;;;;;5037447;28;20394;-80
2020/12/21 11:47:43;;;;;;;8.10;2.33;;;8.90;88.10;;;;;;5035397;28;20044;-80
2020/12/21 11:50:09;;;;;;;16.47;2.87;;;8.90;88.70;;;;;;5036918;28;20431;-81
2020/12/21 11:52:35;;;;;;;7.20;2.40;;;8.90;88.70;;;;;;5037023;28;20101;-81
2020/12/21 11:55:00;;;;;;;12.20;3.20;;;8.90;89.10;;;;;;5037573;28;20108;-80
2020/12/21 11:57:27;;;;;;;9.93;2.40;;;8.80;89.20;;;;;;5036773;28;20052;-81
2020/12/21 11:59:54;;;;;;;10.33;2.07;;;8.80;89.20;;;;;;5019453;28;20053;-80
2020/12/21 12:02:19;;;;;;;11.83;2.40;;;8.70;89.40;;;;;;5036799;28;20052;-80
2020/12/21 12:04:45;;;;;;;8.27;2.20;;;8.70;89.70;;;;;;5037283;28;20037;-81
2020/12/21 12:07:11;;;;;;;11.70;2.87;;;8.70;90.00;;;;;;5036625;28;20021;-80
2020/12/21 12:09:36;;;;;;;7.07;2.47;;;8.70;90.10;;;;;;5017095;28;20390;-80
2020/12/21 12:12:02;;;;;;;10.73;2.73;;;8.60;90.30;;;;;;5036673;28;20045;-80
2020/12/21 12:14:28;;;;;;;15.17;2.80;;;8.70;90.40;;;;;;5018660;28;20494;-81
2020/12/21 12:16:56;;;;;;;6.77;2.60;;;8.70;90.50;;;;;;5037150;28;20052;-79
2020/12/21 12:19:22;;;;;;;8.27;2.20;;;8.70;90.50;;;;;;5019886;28;20134;-81
2020/12/21 12:21:49;;;;;;;10.43;2.60;;;8.70;90.50;;;;;;5034266;28;20025;-81
2020/12/21 12:24:14;;;;;;;11.60;3.10;;;8.70;90.40;;;;;;5034464;28;20484;-81
2020/12/21 12:26:40;;;;;;;9.67;2.80;;;8.70;90.40;;;;;;5034268;28;20108;-80
2020/12/21 12:29:05;;;;;;;8.77;2.57;;;8.70;90.40;;;;;;5016469;28;20044;-81
2020/12/21 12:31:31;;;;;;;8.57;2.80;;;8.70;90.40;;;;;;5034388;28;20026;-80
2020/12/21 12:33:57;;;;;;;10.37;3.23;;;8.60;90.40;;;;;;5017103;28;20079;-80
2020/12/21 12:36:24;;;;;;;12.43;2.70;;;8.70;90.50;;;;;;5017129;28;20112;-81
2020/12/21 12:38:50;;;;;;;7.80;2.70;;;8.70;90.30;;;;;;5034298;28;20025;-81
2020/12/21 12:41:16;;;;;;;8.83;3.17;;;8.70;90.30;;;;;;5034425;28;20049;-81
2020/12/21 12:43:42;;;;;;;10.67;3.20;;;8.70;90.10;;;;;;5037206;28;20104;-80
2020/12/21 12:46:08;;;;;;;11.40;3.47;;;8.70;90.20;;;;;;5039857;28;20033;-80
2020/12/21 12:48:34;;;;;;;23.67;9.20;;;8.70;90.20;;;;;;5021767;28;20044;-80
2020/12/21 12:51:01;;;;;;;21.70;10.13;;;8.70;90.10;;;;;;5033855;28;20397;-80
2020/12/21 12:53:27;;;;;;;30.60;13.53;;;8.70;90.20;;;;;;5033290;28;20026;-80